createdAt,value
2022-10-01T00:01:16.944Z,99726.53
2022-10-01T00:03:44.611Z,99726.09
2022-10-01T00:06:17.838Z,99726.09
2022-10-01T00:08:48.669Z,99715.09
2022-10-01T00:11:21.330Z,99706.28
2022-10-01T00:13:48.633Z,99698.06
2022-10-01T00:16:18.714Z,99700.13
2022-10-01T00:18:46.807Z,99689.00
2022-10-01T00:21:16.878Z,99692.38
2022-10-01T00:23:43.627Z,99680.81
2022-10-01T00:26:18.625Z,99691.56
2022-10-01T00:28:47.626Z,99689.53
2022-10-01T00:31:16.042Z,99678.03
2022-10-01T00:33:43.171Z,99672.13
2022-10-01T00:36:11.692Z,99672.13
2022-10-01T00:38:42.882Z,99660.09
2022-10-01T00:41:10.184Z,99647.38
2022-10-01T00:43:42.533Z,99632.78
2022-10-01T00:46:26.809Z,99639.50
2022-10-01T00:49:13.962Z,99618.06
2022-10-01T00:51:48.828Z,99608.13
2022-10-01T00:54:26.413Z,99607.75
2022-10-01T00:56:57.481Z,99593.53
2022-10-01T00:59:24.576Z,99604.66
2022-10-01T01:01:51.779Z,99603.84
2022-10-01T01:04:18.701Z,99601.31
2022-10-01T01:06:57.558Z,99594.09
2022-10-01T01:09:36.499Z,99580.69
2022-10-01T01:12:38.224Z,99544.66
2022-10-01T01:15:17.003Z,99531.84
2022-10-01T01:17:51.181Z,99532.97
2022-10-01T01:20:47.292Z,99516.31
2022-10-01T01:23:16.851Z,99508.44
2022-10-01T01:25:53.386Z,99489.69
2022-10-01T01:28:31.766Z,99498.00
2022-10-01T01:31:06.003Z,99501.97
2022-10-01T01:33:37.236Z,99486.91
2022-10-01T01:36:16.396Z,99461.44
2022-10-01T01:38:51.706Z,99434.13
2022-10-01T01:41:20.853Z,99397.19
2022-10-01T01:43:51.970Z,99392.44
2022-10-01T01:46:20.863Z,99415.84
2022-10-01T01:48:53.257Z,99447.31
2022-10-01T01:51:32.938Z,99466.31
2022-10-01T01:54:00.321Z,99479.94
2022-10-01T01:56:27.002Z,99485.50
2022-10-01T01:58:54.107Z,99473.50
2022-10-01T02:01:35.051Z,99488.53
2022-10-01T02:04:25.344Z,99462.72
2022-10-01T02:07:18.266Z,99437.16
2022-10-01T02:09:50.044Z,99432.06
2022-10-01T02:12:47.181Z,99429.97
2022-10-01T02:15:55.237Z,99417.00
2022-10-01T02:18:48.211Z,99426.50
2022-10-01T02:21:31.577Z,99428.13
2022-10-01T02:24:02.216Z,99414.94
2022-10-01T02:26:31.495Z,99419.34
2022-10-01T02:29:08.229Z,99420.22
2022-10-01T02:31:35.890Z,99422.56
2022-10-01T02:34:12.185Z,99425.34
2022-10-01T02:36:41.176Z,99434.81
2022-10-01T02:39:10.255Z,99429.13
2022-10-01T02:41:37.296Z,99442.06
2022-10-01T02:44:23.329Z,99459.44
2022-10-01T02:47:26.477Z,99448.22
2022-10-01T02:49:54.151Z,99466.31
2022-10-01T02:52:37.839Z,99480.91
2022-10-01T02:55:10.166Z,99494.78
2022-10-01T02:57:37.188Z,99491.56
2022-10-01T03:00:21.808Z,99482.06
2022-10-01T03:02:49.649Z,99477.22
2022-10-01T03:05:17.459Z,99467.63
2022-10-01T03:07:43.995Z,99469.69
2022-10-01T03:10:12.057Z,99471.66
2022-10-01T03:12:45.204Z,99473.53
2022-10-01T03:15:16.482Z,99469.16
2022-10-01T03:17:43.213Z,99473.53
2022-10-01T03:20:11.652Z,99461.25
2022-10-01T03:22:38.543Z,99469.16
2022-10-01T03:25:05.573Z,99463.59
2022-10-01T03:27:32.309Z,99456.41
2022-10-01T03:29:58.850Z,99464.41
2022-10-01T03:32:25.459Z,99434.56
2022-10-01T03:34:52.065Z,99430.97
2022-10-01T03:37:18.832Z,99423.06
2022-10-01T03:39:45.386Z,99401.22
2022-10-01T03:42:11.989Z,99312.72
2022-10-01T03:44:38.587Z,99293.72
2022-10-01T03:47:05.225Z,99329.38
2022-10-01T03:49:31.900Z,99368.28
2022-10-01T03:51:59.193Z,99395.31
2022-10-01T03:54:26.284Z,99402.38
2022-10-01T03:56:52.772Z,99384.94
2022-10-01T03:59:19.948Z,99380.16
2022-10-01T04:01:46.851Z,99372.19
2022-10-01T04:04:13.492Z,99383.31
2022-10-01T04:06:40.376Z,99373.81
2022-10-01T04:09:09.650Z,99395.22
2022-10-01T04:11:37.444Z,99383.75
2022-10-01T04:14:04.247Z,99390.03
2022-10-01T04:16:30.989Z,99378.47
2022-10-01T04:18:57.788Z,99390.84
2022-10-01T04:21:24.515Z,99374.53
2022-10-01T04:23:51.035Z,99377.75
2022-10-01T04:26:19.106Z,99377.38
2022-10-01T04:28:46.833Z,99380.09
2022-10-01T04:31:26.373Z,99390.03
2022-10-01T04:33:57.333Z,99378.09
2022-10-01T04:36:25.677Z,99371.06
2022-10-01T04:39:01.666Z,99380.88
2022-10-01T04:41:30.856Z,99382.50
2022-10-01T04:43:59.353Z,99393.97
2022-10-01T04:46:26.161Z,99391.19
2022-10-01T04:48:52.760Z,99393.25
2022-10-01T04:51:19.489Z,99393.59
2022-10-01T04:53:45.986Z,99390.50
2022-10-01T04:56:12.635Z,99388.88
2022-10-01T04:58:39.315Z,99400.69
2022-10-01T05:01:06.195Z,99396.75
2022-10-01T05:03:32.900Z,99387.94
2022-10-01T05:05:59.419Z,99379.28
2022-10-01T05:08:26.169Z,99396.28
2022-10-01T05:10:53.205Z,99389.56
2022-10-01T05:13:20.061Z,99410.16
2022-10-01T05:15:49.286Z,99404.63
2022-10-01T05:18:16.166Z,99404.63
2022-10-01T05:20:42.925Z,99408.56
2022-10-01T05:23:09.440Z,99417.78
2022-10-01T05:25:36.045Z,99422.53
2022-10-01T05:28:06.157Z,99418.16
2022-10-01T05:30:34.018Z,99407.41
2022-10-01T05:33:04.482Z,99408.56
2022-10-01T05:35:31.962Z,99419.69
2022-10-01T05:38:00.906Z,99423.63
2022-10-01T05:40:28.697Z,99414.13
2022-10-01T05:42:57.220Z,99429.16
2022-10-01T05:45:24.984Z,99433.75
2022-10-01T05:48:02.727Z,99447.09
2022-10-01T05:50:31.773Z,99454.53
2022-10-01T05:52:59.539Z,99458.56
2022-10-01T05:55:27.353Z,99450.69
2022-10-01T05:58:06.233Z,99441.91
2022-10-01T06:00:34.318Z,99441.53
2022-10-01T06:03:02.754Z,99437.06
2022-10-01T06:05:31.083Z,99435.63
2022-10-01T06:07:58.006Z,99441.91
2022-10-01T06:10:25.267Z,99441.09
2022-10-01T06:12:53.164Z,99437.59
2022-10-01T06:15:19.935Z,99437.22
2022-10-01T06:17:46.987Z,99437.22
2022-10-01T06:20:19.098Z,99435.72
2022-10-01T06:22:53.897Z,99451.50
2022-10-01T06:25:20.710Z,99445.94
2022-10-01T06:27:58.026Z,99451.59
2022-10-01T06:30:29.168Z,99458.03
2022-10-01T06:33:13.541Z,99461.69
2022-10-01T06:35:45.733Z,99460.63
2022-10-01T06:38:12.357Z,99465.72
2022-10-01T06:40:39.801Z,99461.53
2022-10-01T06:43:09.908Z,99471.03
2022-10-01T06:45:39.330Z,99464.56
2022-10-01T06:48:05.884Z,99464.91
2022-10-01T06:50:33.983Z,99472.91
2022-10-01T06:53:02.105Z,99476.50
2022-10-01T06:55:32.401Z,99469.50
2022-10-01T06:58:01.336Z,99479.09
2022-10-01T07:00:30.480Z,99476.94
2022-10-01T07:02:57.787Z,99481.66
2022-10-01T07:05:25.508Z,99485.97
2022-10-01T07:07:53.528Z,99487.94
2022-10-01T07:10:21.316Z,99496.25
2022-10-01T07:12:49.289Z,99494.41
2022-10-01T07:15:18.300Z,99501.59
2022-10-01T07:17:50.495Z,99500.06
2022-10-01T07:20:19.900Z,99500.84
2022-10-01T07:22:47.223Z,99512.69
2022-10-01T07:25:14.519Z,99516.63
2022-10-01T07:27:41.376Z,99511.78
2022-10-01T07:30:08.597Z,99508.28
2022-10-01T07:32:35.470Z,99510.69
2022-10-01T07:35:02.423Z,99510.63
2022-10-01T07:37:30.414Z,99510.69
2022-10-01T07:39:57.176Z,99515.09
2022-10-01T07:42:23.893Z,99517.34
2022-10-01T07:44:50.600Z,99523.69
2022-10-01T07:47:17.135Z,99526.31
2022-10-01T07:49:43.716Z,99528.19
2022-10-01T07:52:13.246Z,99532.03
2022-10-01T07:54:40.281Z,99544.28
2022-10-01T07:57:06.892Z,99535.63
2022-10-01T07:59:33.485Z,99544.41
2022-10-01T08:02:01.019Z,99545.22
2022-10-01T08:04:46.381Z,99547.72
2022-10-01T08:07:12.952Z,99546.91
2022-10-01T08:09:39.794Z,99555.50
2022-10-01T08:12:06.397Z,99561.72
2022-10-01T08:14:32.943Z,99565.91
2022-10-01T08:16:59.615Z,99564.28
2022-10-01T08:19:44.635Z,99558.84
2022-10-01T08:22:12.283Z,99568.00
2022-10-01T08:24:39.773Z,99570.06
2022-10-01T08:27:06.402Z,99568.88
2022-10-01T08:29:33.943Z,99582.88
2022-10-01T08:32:00.843Z,99585.53
2022-10-01T08:34:27.612Z,99591.78
2022-10-01T08:36:54.095Z,99595.50
2022-10-01T08:39:21.055Z,99604.28
2022-10-01T08:42:00.115Z,99601.06
2022-10-01T08:44:41.249Z,99613.81
2022-10-01T08:47:17.397Z,99614.84
2022-10-01T08:49:59.330Z,99616.81
2022-10-01T08:52:33.644Z,99629.91
2022-10-01T08:55:21.142Z,99628.63
2022-10-01T08:57:52.368Z,99630.94
2022-10-01T09:00:37.497Z,99624.22
2022-10-01T09:03:06.649Z,99642.47
2022-10-01T09:05:57.815Z,99648.75
2022-10-01T09:08:45.145Z,99656.63
2022-10-01T09:11:52.334Z,99654.28
2022-10-01T09:14:37.542Z,99656.63
2022-10-01T09:17:14.802Z,99656.38
2022-10-01T09:19:59.502Z,99664.25
2022-10-01T09:22:41.819Z,99658.47
2022-10-01T09:25:22.753Z,99668.00
2022-10-01T09:27:51.916Z,99671.41
2022-10-01T09:30:24.914Z,99668.00
2022-10-01T09:33:10.239Z,99673.41
2022-10-01T09:35:56.656Z,99665.88
2022-10-01T09:38:33.260Z,99668.66
2022-10-01T09:41:00.464Z,99670.84
2022-10-01T09:43:29.871Z,99668.78
2022-10-01T09:45:56.666Z,99679.09
2022-10-01T09:48:43.214Z,99684.41
2022-10-01T09:51:28.546Z,99674.44
2022-10-01T09:54:05.042Z,99680.72
2022-10-01T09:56:39.695Z,99676.78
2022-10-01T09:59:17.310Z,99668.00
2022-10-01T10:01:51.010Z,99683.47
2022-10-01T10:04:23.652Z,99677.44
2022-10-01T10:07:02.074Z,99676.88
2022-10-01T10:09:32.905Z,99677.44
2022-10-01T10:12:00.213Z,99674.44
2022-10-01T10:14:33.739Z,99675.63
2022-10-01T10:17:07.149Z,99684.75
2022-10-01T10:19:34.037Z,99686.94
2022-10-01T10:22:12.517Z,99694.06
2022-10-01T10:24:39.159Z,99704.72
2022-10-01T10:27:20.305Z,99698.72
2022-10-01T10:29:47.021Z,99699.44
2022-10-01T10:32:23.881Z,99707.66
2022-10-01T10:34:52.229Z,99709.63
2022-10-01T10:37:26.274Z,99716.81
2022-10-01T10:39:54.030Z,99727.22
2022-10-01T10:42:23.076Z,99733.59
2022-10-01T10:44:52.872Z,99735.09
2022-10-01T10:47:21.135Z,99730.94
2022-10-01T10:50:04.958Z,99738.63
2022-10-01T10:52:36.428Z,99741.44
2022-10-01T10:55:30.297Z,99737.28
2022-10-01T10:58:14.904Z,99753.72
2022-10-01T11:00:50.421Z,99758.94
2022-10-01T11:03:39.537Z,99754.50
2022-10-01T11:06:14.850Z,99756.72
2022-10-01T11:08:43.053Z,99752.91
2022-10-01T11:11:46.051Z,99764.03
2022-10-01T11:14:28.650Z,99767.38
2022-10-01T11:17:00.901Z,99773.94
2022-10-01T11:19:51.742Z,99774.63
2022-10-01T11:22:43.425Z,99783.22
2022-10-01T11:25:23.015Z,99791.31
2022-10-01T11:28:05.839Z,99786.00
2022-10-01T11:30:46.007Z,99783.91
2022-10-01T11:33:34.326Z,99794.66
2022-10-01T11:36:04.540Z,99789.03
2022-10-01T11:38:49.781Z,99792.44
2022-10-01T11:41:28.781Z,99795.84
2022-10-01T11:43:58.197Z,99797.94
2022-10-01T11:46:34.481Z,99804.03
2022-10-01T11:49:45.653Z,99803.13
2022-10-01T11:52:23.615Z,99815.31
2022-10-01T11:55:33.274Z,99814.94
2022-10-01T11:58:43.407Z,99813.53
2022-10-01T12:01:19.584Z,99824.91
2022-10-01T12:03:58.175Z,99819.81
2022-10-01T12:06:58.133Z,99815.97
2022-10-01T12:09:34.862Z,99825.47
2022-10-01T12:12:09.216Z,99831.50
2022-10-01T12:15:30.465Z,99845.06
2022-10-01T12:18:16.143Z,99841.22
2022-10-01T12:20:53.604Z,99840.19
2022-10-01T12:23:24.911Z,99846.66
2022-10-01T12:26:04.366Z,99845.06
2022-10-01T12:28:44.948Z,99847.13
2022-10-01T12:31:34.835Z,99847.84
2022-10-01T12:34:22.470Z,99850.63
2022-10-01T12:36:58.184Z,99856.03
2022-10-01T12:39:51.479Z,99861.13
2022-10-01T12:42:49.101Z,99860.44
2022-10-01T12:45:34.338Z,99861.25
2022-10-01T12:48:18.793Z,99863.78
2022-10-01T12:50:51.319Z,99877.47
2022-10-01T12:53:39.353Z,99871.19
2022-10-01T12:56:30.936Z,99867.03
2022-10-01T12:59:20.146Z,99865.81
2022-10-01T13:02:23.430Z,99864.91
2022-10-01T13:05:09.662Z,99870.69
2022-10-01T13:07:52.589Z,99870.25
2022-10-01T13:10:41.536Z,99882.97
2022-10-01T13:13:32.857Z,99872.19
2022-10-01T13:16:14.200Z,99878.31
2022-10-01T13:18:43.545Z,99880.19
2022-10-01T13:21:24.697Z,99878.31
2022-10-01T13:24:17.296Z,99882.03
2022-10-01T13:26:56.476Z,99889.91
2022-10-01T13:30:01.982Z,99897.00
2022-10-01T13:32:52.828Z,99897.91
2022-10-01T13:35:30.434Z,99914.84
2022-10-01T13:37:59.793Z,99920.31
2022-10-01T13:40:32.046Z,99907.97
2022-10-01T13:43:08.084Z,99913.28
2022-10-01T13:45:37.575Z,99914.72
2022-10-01T13:48:16.313Z,99923.78
2022-10-01T13:51:14.142Z,99929.22
2022-10-01T13:53:43.673Z,99938.59
2022-10-01T13:56:14.377Z,99935.91
2022-10-01T13:58:44.248Z,99935.56
2022-10-01T14:01:23.635Z,99940.69
2022-10-01T14:03:50.974Z,99938.28
2022-10-01T14:06:43.832Z,99941.13
2022-10-01T14:09:31.276Z,99945.31
2022-10-01T14:12:32.284Z,99946.25
2022-10-01T14:15:20.243Z,99962.25
2022-10-01T14:17:52.506Z,99966.88
2022-10-01T14:20:30.598Z,99968.97
2022-10-01T14:23:11.736Z,99974.28
2022-10-01T14:25:53.362Z,99977.28
2022-10-01T14:28:44.171Z,99984.50
2022-10-01T14:32:07.753Z,99989.25
2022-10-01T14:34:59.103Z,99993.63
2022-10-01T14:37:27.358Z,99991.91
2022-10-01T14:40:19.340Z,99991.66
2022-10-01T14:43:03.901Z,99996.06
2022-10-01T14:45:30.804Z,100004.16
2022-10-01T14:48:05.146Z,100000.47
2022-10-01T14:50:34.949Z,100010.69
2022-10-01T14:53:01.740Z,100008.91
2022-10-01T14:55:29.393Z,100006.06
2022-10-01T14:57:57.625Z,100015.13
2022-10-01T15:00:27.772Z,100020.88
2022-10-01T15:03:03.813Z,100018.34
2022-10-01T15:05:33.523Z,100018.69
2022-10-01T15:08:35.863Z,100026.25
2022-10-01T15:11:06.536Z,100029.25
2022-10-01T15:13:39.707Z,100024.63
2022-10-01T15:16:16.362Z,100031.81
2022-10-01T15:18:53.304Z,100032.50
2022-10-01T15:21:26.705Z,100050.38
2022-10-01T15:23:53.944Z,100049.91
2022-10-01T15:26:25.192Z,100056.31
2022-10-01T15:29:05.939Z,100068.94
2022-10-01T15:31:34.068Z,100074.16
2022-10-01T15:34:03.990Z,100077.97
2022-10-01T15:36:31.588Z,100077.53
2022-10-01T15:38:59.069Z,100076.00
2022-10-01T15:41:32.555Z,100073.72
2022-10-01T15:44:03.289Z,100076.00
2022-10-01T15:46:34.099Z,100085.53
2022-10-01T15:49:13.086Z,100090.63
2022-10-01T15:52:13.169Z,100081.94
2022-10-01T15:54:41.794Z,100094.91
2022-10-01T15:57:15.654Z,100088.66
2022-10-01T15:59:42.319Z,100101.44
2022-10-01T16:02:18.756Z,100103.03
2022-10-01T16:04:46.815Z,100108.16
2022-10-01T16:07:26.250Z,100116.94
2022-10-01T16:09:55.612Z,100120.91
2022-10-01T16:12:23.000Z,100129.59
2022-10-01T16:15:06.966Z,100128.69
2022-10-01T16:17:35.305Z,100133.06
2022-10-01T16:20:22.210Z,100132.28
2022-10-01T16:22:48.880Z,100140.28
2022-10-01T16:25:27.364Z,100153.03
2022-10-01T16:27:56.472Z,100161.47
2022-10-01T16:30:27.569Z,100161.47
2022-10-01T16:32:55.517Z,100168.00
2022-10-01T16:35:25.039Z,100167.66
2022-10-01T16:37:54.864Z,100175.03
2022-10-01T16:40:24.477Z,100173.56
2022-10-01T16:42:52.270Z,100181.69
2022-10-01T16:45:22.752Z,100177.38
2022-10-01T16:47:49.318Z,100182.09
2022-10-01T16:50:18.847Z,100182.09
2022-10-01T16:52:45.825Z,100189.19
2022-10-01T16:55:32.320Z,100197.06
2022-10-01T16:57:59.018Z,100206.69
2022-10-01T17:00:27.839Z,100212.81
2022-10-01T17:02:55.841Z,100214.25
2022-10-01T17:05:31.613Z,100221.78
2022-10-01T17:08:00.866Z,100228.03
2022-10-01T17:10:32.049Z,100234.41
2022-10-01T17:12:59.605Z,100232.78
2022-10-01T17:15:28.289Z,100243.13
2022-10-01T17:17:56.889Z,100247.97
2022-10-01T17:20:26.453Z,100251.91
2022-10-01T17:22:53.264Z,100259.00
2022-10-01T17:25:34.435Z,100268.50
2022-10-01T17:28:03.750Z,100266.31
2022-10-01T17:30:31.464Z,100269.22
2022-10-01T17:33:01.613Z,100273.38
2022-10-01T17:35:30.821Z,100281.94
2022-10-01T17:37:58.431Z,100282.75
2022-10-01T17:40:25.743Z,100292.25
2022-10-01T17:42:52.808Z,100294.69
2022-10-01T17:45:19.549Z,100301.75
2022-10-01T17:47:48.451Z,100298.66
2022-10-01T17:50:16.433Z,100307.31
2022-10-01T17:52:43.160Z,100311.38
2022-10-01T17:55:12.086Z,100313.69
2022-10-01T17:57:39.051Z,100316.94
2022-10-01T18:00:06.666Z,100319.13
2022-10-01T18:02:43.282Z,100328.66
2022-10-01T18:05:13.971Z,100324.69
2022-10-01T18:07:41.976Z,100333.41
2022-10-01T18:10:11.966Z,100337.00
2022-10-01T18:12:39.169Z,100339.78
2022-10-01T18:15:06.343Z,100339.78
2022-10-01T18:17:33.524Z,100350.91
2022-10-01T18:20:02.012Z,100354.84
2022-10-01T18:22:28.671Z,100354.69
2022-10-01T18:24:55.393Z,100354.25
2022-10-01T18:27:22.410Z,100373.03
2022-10-01T18:29:49.408Z,100370.72
2022-10-01T18:32:31.232Z,100365.00
2022-10-01T18:34:59.095Z,100371.25
2022-10-01T18:37:37.750Z,100375.22
2022-10-01T18:40:13.111Z,100376.03
2022-10-01T18:42:57.829Z,100390.94
2022-10-01T18:45:44.506Z,100400.47
2022-10-01T18:48:32.656Z,100409.28
2022-10-01T18:51:02.184Z,100408.47
2022-10-01T18:53:47.998Z,100420.41
2022-10-01T18:56:35.840Z,100425.97
2022-10-01T18:59:21.134Z,100420.25
2022-10-01T19:01:54.131Z,100409.97
2022-10-01T19:04:26.752Z,100410.09
2022-10-01T19:07:09.489Z,100403.72
2022-10-01T19:09:44.874Z,100400.47
2022-10-01T19:12:39.410Z,100415.66
2022-10-01T19:15:13.700Z,100419.94
2022-10-01T19:17:50.978Z,100427.63
2022-10-01T19:20:37.870Z,100429.22
2022-10-01T19:23:21.348Z,100428.75
2022-10-01T19:25:54.150Z,100437.78
2022-10-01T19:28:42.838Z,100440.88
2022-10-01T19:31:19.786Z,100432.69
2022-10-01T19:33:56.300Z,100448.56
2022-10-01T19:36:36.849Z,100459.56
2022-10-01T19:39:10.858Z,100460.84
2022-10-01T19:41:59.621Z,100461.69
2022-10-01T19:44:29.699Z,100465.59
2022-10-01T19:47:05.871Z,100468.19
2022-10-01T19:49:36.794Z,100468.84
2022-10-01T19:52:16.733Z,100476.72
2022-10-01T19:54:48.631Z,100481.16
2022-10-01T19:57:22.386Z,100483.94
2022-10-01T19:59:50.680Z,100482.03
2022-10-01T20:02:26.338Z,100483.81
2022-10-01T20:05:01.663Z,100486.66
2022-10-01T20:07:43.977Z,100485.34
2022-10-01T20:10:13.755Z,100497.56
2022-10-01T20:12:47.748Z,100486.97
2022-10-01T20:15:19.860Z,100498.25
2022-10-01T20:17:55.535Z,100497.44
2022-10-01T20:20:31.338Z,100501.06
2022-10-01T20:23:12.483Z,100508.13
2022-10-01T20:26:05.980Z,100514.00
2022-10-01T20:28:36.413Z,100518.59
2022-10-01T20:31:26.342Z,100509.03
2022-10-01T20:34:14.018Z,100518.31
2022-10-01T20:37:07.978Z,100535.69
2022-10-01T20:39:41.656Z,100531.31
2022-10-01T20:42:18.108Z,100535.03
2022-10-01T20:44:45.411Z,100539.91
2022-10-01T20:47:21.043Z,100535.84
2022-10-01T20:49:58.211Z,100535.75
2022-10-01T20:53:03.821Z,100545.75
2022-10-01T20:55:41.418Z,100536.22
2022-10-01T20:58:31.266Z,100552.84
2022-10-01T21:01:20.651Z,100546.00
2022-10-01T21:03:53.724Z,100546.22
2022-10-01T21:06:30.233Z,100555.19
2022-10-01T21:09:02.711Z,100554.00
2022-10-01T21:11:35.948Z,100557.94
2022-10-01T21:14:38.026Z,100554.88
2022-10-01T21:17:32.051Z,100558.03
2022-10-01T21:20:32.664Z,100560.31
2022-10-01T21:23:30.210Z,100565.75
2022-10-01T21:26:24.372Z,100572.81
2022-10-01T21:29:19.350Z,100579.03
2022-10-01T21:32:03.883Z,100578.25
2022-10-01T21:34:59.223Z,100575.66
2022-10-01T21:37:41.433Z,100580.06
2022-10-01T21:40:11.405Z,100585.31
2022-10-01T21:43:10.269Z,100581.22
2022-10-01T21:45:57.396Z,100587.47
2022-10-01T21:48:58.419Z,100595.81
2022-10-01T21:51:42.969Z,100596.50
2022-10-01T21:54:24.485Z,100593.41
2022-10-01T21:56:51.046Z,100595.84
2022-10-01T21:59:45.639Z,100593.41
2022-10-01T22:02:48.005Z,100596.84
2022-10-01T22:05:39.390Z,100606.34
2022-10-01T22:08:20.861Z,100610.63
2022-10-01T22:10:51.354Z,100627.31
2022-10-01T22:13:24.528Z,100634.06
2022-10-01T22:15:56.623Z,100638.34
2022-10-01T22:18:45.859Z,100640.75
2022-10-01T22:21:17.369Z,100630.44
2022-10-01T22:23:57.870Z,100639.09
2022-10-01T22:26:30.274Z,100639.28
2022-10-01T22:28:59.218Z,100624.88
2022-10-01T22:31:30.563Z,100624.03
2022-10-01T22:34:05.486Z,100631.75
2022-10-01T22:36:55.193Z,100635.66
2022-10-01T22:39:28.557Z,100633.56
2022-10-01T22:42:26.900Z,100628.81
2022-10-01T22:44:53.534Z,100621.63
2022-10-01T22:47:37.865Z,100616.38
2022-10-01T22:50:29.406Z,100622.56
2022-10-01T22:53:08.742Z,100632.06
2022-10-01T22:55:49.007Z,100638.97
2022-10-01T22:58:37.397Z,100644.00
2022-10-01T23:01:17.222Z,100649.91
2022-10-01T23:03:49.570Z,100629.56
2022-10-01T23:06:43.275Z,100647.44
2022-10-01T23:09:22.902Z,100647.63
2022-10-01T23:11:55.187Z,100644.63
2022-10-01T23:14:30.618Z,100646.28
2022-10-01T23:17:06.041Z,100647.78
2022-10-01T23:19:40.258Z,100646.94
2022-10-01T23:22:28.579Z,100653.66
2022-10-01T23:25:36.869Z,100653.34
2022-10-01T23:28:36.098Z,100656.75
2022-10-01T23:31:21.234Z,100660.22
2022-10-01T23:33:59.216Z,100654.66
2022-10-01T23:36:38.001Z,100651.50
2022-10-01T23:39:34.202Z,100643.69
2022-10-01T23:42:13.804Z,100646.78
2022-10-01T23:45:05.488Z,100653.34
2022-10-01T23:48:11.383Z,100653.50
2022-10-01T23:50:45.089Z,100655.31
2022-10-01T23:53:22.754Z,100660.22
2022-10-01T23:56:30.329Z,100664.31
2022-10-01T23:59:05.669Z,100662.84
